Time;durP1;ratioP1;P1;durP2;ratioP2;P2;SDS_P1;SDS_P2;PMS_P1;PMS_P2;Temp;Humidity;BMP_temperature;BMP_pressure;BME280_temperature;BME280_humidity;BME280_pressure;Samples;Min_cycle;Max_cycle;Signal;HPM_P1;HPM_P2
2024/03/01 00:02:20;;;;;;;;;;;4.30;99.90;;;;;;21056322;28;19912;-79
2024/03/01 00:12:21;;;;;;;;;;;4.40;99.90;;;;;;21065027;28;19916;-79
2024/03/01 00:22:21;;;;;;;;;;;4.40;99.90;;;;;;21074213;28;19920;-79
2024/03/01 00:32:22;;;;;;;;;;;4.60;99.90;;;;;;21070169;28;19917;-79
2024/03/01 00:42:23;;;;;;;;;;;4.50;99.90;;;;;;21076982;28;19920;-80
2024/03/01 00:52:23;;;;;;;;;;;4.00;99.90;;;;;;21050770;28;19970;-80
2024/03/01 01:02:24;;;;;;;;;;;4.20;99.90;;;;;;21065473;28;20015;-79
2024/03/01 01:12:25;;;;;;;;;;;4.40;99.90;;;;;;21064962;28;19923;-80
2024/03/01 01:22:26;;;;;;;;;;;4.50;99.90;;;;;;21073299;28;19913;-79
2024/03/01 01:32:26;;;;;;;;;;;4.50;99.90;;;;;;21067415;28;19917;-80
2024/03/01 01:42:27;;;;;;;;;;;4.60;99.90;;;;;;21070420;28;19923;-79
2024/03/01 01:52:28;;;;;;;;;;;4.50;99.90;;;;;;21058251;28;19916;-80
2024/03/01 02:02:29;;;;;;;;;;;4.70;99.90;;;;;;21086426;28;19920;-78
2024/03/01 02:12:29;;;;;;;;;;;4.70;99.90;;;;;;21053943;28;19916;-78
2024/03/01 02:22:30;;;;;;;;;;;4.60;99.90;;;;;;21061765;28;19935;-80
2024/03/01 02:32:31;;;;;;;;;;;4.70;99.90;;;;;;21055640;28;19916;-79
2024/03/01 02:42:32;;;;;;;;;;;4.70;99.90;;;;;;21079944;28;19962;-79
2024/03/01 02:52:33;;;;;;;;;;;4.80;99.90;;;;;;21084650;28;20291;-79
2024/03/01 03:02:34;;;;;;;;;;;4.90;99.90;;;;;;21083513;28;19912;-79
2024/03/01 03:12:34;;;;;;;;;;;4.90;99.90;;;;;;21095588;28;19916;-80
2024/03/01 03:22:36;;;;;;;;;;;4.90;99.90;;;;;;21055976;28;19960;-79
2024/03/01 03:32:37;;;;;;;;;;;4.80;99.90;;;;;;21074978;28;19927;-79
2024/03/01 03:42:38;;;;;;;;;;;4.70;99.90;;;;;;21061489;28;20345;-79
2024/03/01 03:52:38;;;;;;;;;;;4.50;99.90;;;;;;21079663;28;19916;-79
2024/03/01 04:02:39;;;;;;;;;;;4.70;99.90;;;;;;21064580;28;19913;-79
2024/03/01 04:12:40;;;;;;;;;;;4.70;99.90;;;;;;21075264;28;19951;-79
2024/03/01 04:22:41;;;;;;;;;;;4.70;99.90;;;;;;21044115;28;19948;-79
2024/03/01 04:32:42;;;;;;;;;;;4.70;99.90;;;;;;21056437;28;19923;-79
2024/03/01 04:42:42;;;;;;;;;;;4.70;99.90;;;;;;21065931;28;19912;-79
2024/03/01 04:52:43;;;;;;;;;;;4.80;99.90;;;;;;21052467;28;19923;-80
2024/03/01 05:02:44;;;;;;;;;;;4.90;99.90;;;;;;21065963;28;19918;-81
2024/03/01 05:12:45;;;;;;;;;;;5.00;99.90;;;;;;21061095;28;19923;-80
2024/03/01 05:22:46;;;;;;;;;;;5.00;99.90;;;;;;21083450;28;19920;-79
2024/03/01 05:32:48;;;;;;;;;;;5.10;99.90;;;;;;21100883;28;19924;-80
2024/03/01 05:42:49;;;;;;;;;;;5.10;99.90;;;;;;21069470;28;19923;-81
2024/03/01 05:52:50;;;;;;;;;;;5.10;99.90;;;;;;21066208;28;20004;-79
2024/03/01 06:02:51;;;;;;;;;;;5.00;99.90;;;;;;21089677;28;19923;-79
2024/03/01 06:12:52;;;;;;;;;;;5.00;99.90;;;;;;21079096;28;20387;-79
2024/03/01 06:22:53;;;;;;;;;;;5.10;99.90;;;;;;21059925;28;19966;-79
2024/03/01 06:32:54;;;;;;;;;;;5.10;99.90;;;;;;21050562;28;19917;-80
2024/03/01 06:42:55;;;;;;;;;;;5.10;99.90;;;;;;21065298;28;19951;-80
2024/03/01 06:52:55;;;;;;;;;;;5.20;99.90;;;;;;21054923;28;19917;-80
2024/03/01 07:02:56;;;;;;;;;;;5.20;99.90;;;;;;21040672;28;19955;-80
2024/03/01 07:12:57;;;;;;;;;;;5.30;99.90;;;;;;21082513;28;19977;-81
2024/03/01 07:22:57;;;;;;;;;;;5.30;99.90;;;;;;21102547;28;19916;-81
2024/03/01 07:32:58;;;;;;;;;;;5.30;99.90;;;;;;21090600;28;20351;-82
2024/03/01 07:42:59;;;;;;;;;;;5.40;99.90;;;;;;21073599;28;19912;-80
2024/03/01 07:52:59;;;;;;;;;;;5.50;99.90;;;;;;21073433;28;19916;-80
2024/03/01 08:03:06;;;;;;;;;;;5.60;99.90;;;;;;21066622;28;19920;-81
2024/03/01 08:13:07;;;;;;;;;;;5.80;99.90;;;;;;21056613;28;19923;-79
2024/03/01 08:23:11;;;;;;;;;;;5.70;99.90;;;;;;21070727;28;20284;-80
2024/03/01 08:33:15;;;;;;;;;;;5.90;99.90;;;;;;21039172;28;19973;-82
2024/03/01 08:43:16;;;;;;;;;;;6.20;99.90;;;;;;21073787;28;20003;-80
2024/03/01 08:53:32;;;;;;;;;;;6.30;99.90;;;;;;21076718;28;19916;-81
2024/03/01 09:03:35;;;;;;;;;;;6.20;99.90;;;;;;21081979;28;19916;-80
2024/03/01 09:13:36;;;;;;;;;;;6.40;99.90;;;;;;21042498;28;19916;-79
2024/03/01 09:23:37;;;;;;;;;;;6.60;99.90;;;;;;21054544;28;20340;-79
2024/03/01 09:33:38;;;;;;;;;;;6.80;99.90;;;;;;21054212;28;20536;-80
2024/03/01 09:43:50;;;;;;;;;;;7.10;99.90;;;;;;21057037;28;19912;-80
2024/03/01 09:54:09;;;;;;;;;;;7.40;99.90;;;;;;21059805;28;19990;-81
2024/03/01 10:04:18;;;;;;;;;;;7.60;99.90;;;;;;21082671;28;19995;-79
2024/03/01 10:14:31;;;;;;;;;;;8.10;99.90;;;;;;21067168;28;19916;-79
2024/03/01 10:24:35;;;;;;;;;;;8.30;99.90;;;;;;21073520;28;20407;-80
2024/03/01 10:34:54;;;;;;;;;;;8.40;99.90;;;;;;21075434;28;20372;-80
2024/03/01 10:45:00;;;;;;;;;;;8.70;99.90;;;;;;21098711;28;19912;-81
2024/03/01 10:55:05;;;;;;;;;;;8.10;99.90;;;;;;21102505;28;19916;-81
2024/03/01 11:05:14;;;;;;;;;;;7.90;99.90;;;;;;21095163;28;20305;-80
2024/03/01 11:15:17;;;;;;;;;;;7.80;99.90;;;;;;21111584;28;20383;-79
2024/03/01 11:25:20;;;;;;;;;;;8.10;99.90;;;;;;21107560;28;19921;-82
2024/03/01 11:35:24;;;;;;;;;;;8.10;99.90;;;;;;21093768;28;19916;-78
2024/03/01 11:45:28;;;;;;;;;;;8.20;99.90;;;;;;21091251;28;19912;-81
2024/03/01 11:55:41;;;;;;;;;;;8.10;99.90;;;;;;21094822;28;19973;-79
2024/03/01 12:05:45;;;;;;;;;;;8.00;99.90;;;;;;21102861;28;19912;-81
2024/03/01 12:15:52;;;;;;;;;;;7.90;99.90;;;;;;21082863;28;19969;-79
2024/03/01 12:25:53;;;;;;;;;;;8.10;99.90;;;;;;21045632;28;19912;-80
2024/03/01 12:35:54;;;;;;;;;;;8.00;99.90;;;;;;21071377;28;19917;-78
2024/03/01 12:46:13;;;;;;;;;;;7.90;99.90;;;;;;21033584;28;19913;-80
2024/03/01 12:56:35;;;;;;;;;;;8.00;99.90;;;;;;21076855;28;19917;-80
2024/03/01 13:06:36;;;;;;;;;;;7.90;99.90;;;;;;21058176;28;19976;-80
2024/03/01 13:16:36;;;;;;;;;;;7.90;99.90;;;;;;21042448;28;19916;-80
2024/03/01 13:27:06;;;;;;;;;;;7.90;99.90;;;;;;21047873;28;20302;-81
2024/03/01 13:37:06;;;;;;;;;;;7.90;99.90;;;;;;21044846;28;19924;-81
2024/03/01 13:47:07;;;;;;;;;;;7.70;99.90;;;;;;21069429;28;19912;-80
2024/03/01 13:57:10;;;;;;;;;;;7.60;99.90;;;;;;21090842;28;19989;-80
2024/03/01 14:07:15;;;;;;;;;;;7.60;99.90;;;;;;21100243;28;19916;-80
2024/03/01 14:17:17;;;;;;;;;;;7.50;99.90;;;;;;21105288;28;19916;-80
2024/03/01 14:27:18;;;;;;;;;;;7.50;99.90;;;;;;21069632;28;19927;-82
2024/03/01 14:37:23;;;;;;;;;;;7.60;99.90;;;;;;21061031;28;19916;-78
2024/03/01 14:47:24;;;;;;;;;;;7.50;99.90;;;;;;21092510;28;19922;-77
2024/03/01 14:57:26;;;;;;;;;;;7.50;99.90;;;;;;21087352;28;19916;-81
2024/03/01 15:07:27;;;;;;;;;;;7.60;99.90;;;;;;21069065;28;19919;-80
2024/03/01 15:17:27;;;;;;;;;;;7.80;99.90;;;;;;21052689;28;20292;-80
2024/03/01 15:27:28;;;;;;;;;;;7.60;99.90;;;;;;21053912;28;19916;-79
2024/03/01 15:37:29;;;;;;;;;;;7.70;99.90;;;;;;21052476;28;20006;-80
2024/03/01 15:47:29;;;;;;;;;;;7.70;99.90;;;;;;21049796;28;19912;-80
2024/03/01 15:57:30;;;;;;;;;;;7.70;99.90;;;;;;21049202;28;19916;-79
2024/03/01 16:07:40;;;;;;;;;;;7.70;99.90;;;;;;21046198;28;19919;-80
2024/03/01 16:17:41;;;;;;;;;;;7.70;99.90;;;;;;21049877;28;19917;-80
2024/03/01 16:27:43;;;;;;;;;;;7.60;99.90;;;;;;21047251;28;19919;-80
2024/03/01 16:37:43;;;;;;;;;;;7.60;99.90;;;;;;21089233;28;20433;-78
2024/03/01 16:47:44;;;;;;;;;;;7.70;99.90;;;;;;21113303;28;19912;-81
2024/03/01 16:57:45;;;;;;;;;;;7.60;99.90;;;;;;21108580;28;19993;-80
2024/03/01 17:07:46;;;;;;;;;;;7.60;99.90;;;;;;21108102;28;19927;-79
2024/03/01 17:17:48;;;;;;;;;;;7.40;99.90;;;;;;21103438;28;19915;-81
2024/03/01 17:27:49;;;;;;;;;;;7.30;99.90;;;;;;21103375;28;19923;-80
2024/03/01 17:37:49;;;;;;;;;;;7.00;99.90;;;;;;21095208;28;19916;-79
2024/03/01 17:47:50;;;;;;;;;;;6.50;99.90;;;;;;21053760;28;19912;-78
2024/03/01 17:57:51;;;;;;;;;;;6.20;99.90;;;;;;21055862;28;19917;-80
2024/03/01 18:07:51;;;;;;;;;;;6.10;99.90;;;;;;21051726;28;19919;-80
2024/03/01 18:17:52;;;;;;;;;;;5.90;99.90;;;;;;21049188;28;19970;-80
2024/03/01 18:27:53;;;;;;;;;;;6.00;99.90;;;;;;21048588;28;19912;-81
2024/03/01 18:37:53;;;;;;;;;;;5.70;99.90;;;;;;21054788;28;19916;-79
2024/03/01 18:47:54;;;;;;;;;;;5.50;99.90;;;;;;21030491;28;20391;-80
2024/03/01 18:57:55;;;;;;;;;;;5.40;99.90;;;;;;21021613;28;19960;-80
2024/03/01 19:07:55;;;;;;;;;;;5.10;99.90;;;;;;21015688;28;19999;-79
2024/03/01 19:17:56;;;;;;;;;;;5.40;99.90;;;;;;21021704;28;19917;-81
2024/03/01 19:27:57;;;;;;;;;;;5.50;99.90;;;;;;21016720;28;19912;-83
2024/03/01 19:37:57;;;;;;;;;;;5.60;99.90;;;;;;21049367;28;19924;-80
2024/03/01 19:47:58;;;;;;;;;;;5.70;99.90;;;;;;21056301;28;20112;-79
2024/03/01 19:57:59;;;;;;;;;;;5.80;99.90;;;;;;21070062;28;19920;-81
2024/03/01 20:08:00;;;;;;;;;;;5.80;99.90;;;;;;21073850;28;20410;-80
2024/03/01 20:18:01;;;;;;;;;;;5.70;99.90;;;;;;21041925;28;20390;-79
2024/03/01 20:28:04;;;;;;;;;;;5.80;99.90;;;;;;21032005;28;19934;-80
2024/03/01 20:38:05;;;;;;;;;;;5.90;99.90;;;;;;21041483;28;19978;-81
2024/03/01 20:48:06;;;;;;;;;;;5.80;99.90;;;;;;21048473;28;19912;-78
2024/03/01 20:58:07;;;;;;;;;;;5.80;99.90;;;;;;21037606;28;19985;-79
2024/03/01 21:08:07;;;;;;;;;;;5.80;99.90;;;;;;21045671;28;21270;-80
2024/03/01 21:18:08;;;;;;;;;;;5.60;99.90;;;;;;21043039;28;20019;-80
2024/03/01 21:28:09;;;;;;;;;;;5.60;99.90;;;;;;21036255;28;19916;-81
2024/03/01 21:38:10;;;;;;;;;;;5.70;99.90;;;;;;21033594;28;19916;-80
2024/03/01 21:48:10;;;;;;;;;;;5.70;99.90;;;;;;21040839;28;19931;-80
2024/03/01 21:58:11;;;;;;;;;;;5.60;99.90;;;;;;21028219;28;19924;-80
2024/03/01 22:08:12;;;;;;;;;;;5.30;99.90;;;;;;21009361;28;20444;-78
2024/03/01 22:18:12;;;;;;;;;;;5.30;99.90;;;;;;21043967;28;19916;-79
2024/03/01 22:28:13;;;;;;;;;;;5.30;99.90;;;;;;21025340;28;19912;-78
2024/03/01 22:38:14;;;;;;;;;;;5.10;99.90;;;;;;21039850;28;19916;-79
2024/03/01 22:48:14;;;;;;;;;;;5.20;99.90;;;;;;21054021;28;19912;-79
2024/03/01 22:58:19;;;;;;;;;;;5.10;99.90;;;;;;21024188;28;19924;-79
2024/03/01 23:08:23;;;;;;;;;;;5.30;99.90;;;;;;21100339;28;19916;-80
2024/03/01 23:18:23;;;;;;;;;;;5.20;99.90;;;;;;21115442;28;19916;-80
2024/03/01 23:28:24;;;;;;;;;;;5.10;99.90;;;;;;21107298;28;19919;-78
2024/03/01 23:38:25;;;;;;;;;;;5.30;99.90;;;;;;21135845;28;19943;-77
2024/03/01 23:48:26;;;;;;;;;;;5.10;99.90;;;;;;21129574;28;19912;-78
2024/03/01 23:58:26;;;;;;;;;;;4.60;99.90;;;;;;21088425;28;20272;-78
